sensor_id;sensor_type;location;lat;lon;timestamp;pressure;altitude;pressure_sealevel;temperature;humidity
19553;BME280;9420;50.876;7.012;2023-03-21T00:00:53;101300.25;;;18.87;76.57
19553;BME280;9420;50.876;7.012;2023-03-21T00:03:21;101299.91;;;18.93;75.87
19553;BME280;9420;50.876;7.012;2023-03-21T00:05:48;101299.91;;;18.93;76.20
19553;BME280;9420;50.876;7.012;2023-03-21T00:08:18;101300.44;;;18.84;75.31
19553;BME280;9420;50.876;7.012;2023-03-21T00:10:45;101298.53;;;18.86;76.14
19553;BME280;9420;50.876;7.012;2023-03-21T00:13:14;101292.25;;;18.87;75.74
19553;BME280;9420;50.876;7.012;2023-03-21T00:15:43;101296.16;;;18.97;77.05
19553;BME280;9420;50.876;7.012;2023-03-21T00:18:19;101289.47;;;18.73;77.14
19553;BME280;9420;50.876;7.012;2023-03-21T00:20:55;101296.13;;;18.82;76.45
19553;BME280;9420;50.876;7.012;2023-03-21T00:23:24;101287.44;;;18.78;77.14
19553;BME280;9420;50.876;7.012;2023-03-21T00:25:51;101289.22;;;18.78;76.50
19553;BME280;9420;50.876;7.012;2023-03-21T00:28:18;101286.66;;;18.76;76.58
19553;BME280;9420;50.876;7.012;2023-03-21T00:30:46;101279.91;;;18.69;79.17
19553;BME280;9420;50.876;7.012;2023-03-21T00:33:14;101281.13;;;18.79;78.37
19553;BME280;9420;50.876;7.012;2023-03-21T00:35:46;101279.56;;;18.75;79.04
19553;BME280;9420;50.876;7.012;2023-03-21T00:38:14;101275.19;;;18.74;79.25
19553;BME280;9420;50.876;7.012;2023-03-21T00:40:41;101281.66;;;18.70;80.25
19553;BME280;9420;50.876;7.012;2023-03-21T00:43:08;101270.25;;;18.67;80.02
19553;BME280;9420;50.876;7.012;2023-03-21T00:45:36;101272.47;;;18.59;80.96
19553;BME280;9420;50.876;7.012;2023-03-21T00:48:05;101273.94;;;18.64;80.17
19553;BME280;9420;50.876;7.012;2023-03-21T00:50:32;101267.53;;;18.68;81.52
19553;BME280;9420;50.876;7.012;2023-03-21T00:52:59;101267.44;;;18.70;80.52
19553;BME280;9420;50.876;7.012;2023-03-21T00:55:26;101263.22;;;18.66;81.79
19553;BME280;9420;50.876;7.012;2023-03-21T00:57:53;101264.47;;;18.59;81.65
19553;BME280;9420;50.876;7.012;2023-03-21T01:00:21;101258.59;;;18.85;80.21
19553;BME280;9420;50.876;7.012;2023-03-21T01:02:48;101255.28;;;18.64;78.32
19553;BME280;9420;50.876;7.012;2023-03-21T01:05:26;101246.84;;;18.56;79.72
19553;BME280;9420;50.876;7.012;2023-03-21T01:08:07;101247.03;;;18.53;80.60
19553;BME280;9420;50.876;7.012;2023-03-21T01:10:38;101243.97;;;18.44;79.33
19553;BME280;9420;50.876;7.012;2023-03-21T01:13:08;101250.84;;;18.48;79.68
19553;BME280;9420;50.876;7.012;2023-03-21T01:15:36;101249.25;;;18.45;81.96
19553;BME280;9420;50.876;7.012;2023-03-21T01:18:08;101245.75;;;18.43;81.29
19553;BME280;9420;50.876;7.012;2023-03-21T01:20:36;101246.50;;;18.62;80.31
19553;BME280;9420;50.876;7.012;2023-03-21T01:23:03;101241.50;;;18.56;79.53
19553;BME280;9420;50.876;7.012;2023-03-21T01:25:30;101236.34;;;18.53;81.10
19553;BME280;9420;50.876;7.012;2023-03-21T01:27:57;101231.56;;;18.60;81.15
19553;BME280;9420;50.876;7.012;2023-03-21T01:30:27;101235.16;;;18.59;80.03
19553;BME280;9420;50.876;7.012;2023-03-21T01:32:54;101238.38;;;18.48;80.80
19553;BME280;9420;50.876;7.012;2023-03-21T01:35:21;101233.34;;;18.59;81.73
19553;BME280;9420;50.876;7.012;2023-03-21T01:37:50;101234.72;;;18.51;83.13
19553;BME280;9420;50.876;7.012;2023-03-21T01:40:22;101225.69;;;18.53;82.96
19553;BME280;9420;50.876;7.012;2023-03-21T01:42:50;101228.69;;;18.30;77.92
19553;BME280;9420;50.876;7.012;2023-03-21T01:48:54;101228.78;;;18.61;77.57
19553;BME280;9420;50.876;7.012;2023-03-21T01:51:25;101227.38;;;18.54;75.69
19553;BME280;9420;50.876;7.012;2023-03-21T01:53:55;101229.38;;;18.51;81.18
19553;BME280;9420;50.876;7.012;2023-03-21T01:56:27;101219.09;;;18.76;76.32
19553;BME280;9420;50.876;7.012;2023-03-21T01:59:00;101220.72;;;18.78;81.24
19553;BME280;9420;50.876;7.012;2023-03-21T02:01:30;101221.03;;;18.57;83.65
19553;BME280;9420;50.876;7.012;2023-03-21T02:04:00;101220.16;;;18.56;84.51
19553;BME280;9420;50.876;7.012;2023-03-21T02:06:37;101216.72;;;18.54;84.44
19553;BME280;9420;50.876;7.012;2023-03-21T02:09:12;101212.16;;;18.56;84.14
19553;BME280;9420;50.876;7.012;2023-03-21T02:11:42;101208.91;;;18.34;82.14
19553;BME280;9420;50.876;7.012;2023-03-21T02:14:15;101200.22;;;18.79;83.00
19553;BME280;9420;50.876;7.012;2023-03-21T02:16:51;101203.25;;;18.40;85.22
19553;BME280;9420;50.876;7.012;2023-03-21T02:26:42;101181.91;;;18.57;82.73
19553;BME280;9420;50.876;7.012;2023-03-21T02:29:34;101176.66;;;18.56;82.34
19553;BME280;9420;50.876;7.012;2023-03-21T02:32:11;101168.72;;;18.54;83.22
19553;BME280;9420;50.876;7.012;2023-03-21T02:37:58;101174.69;;;18.42;81.42
19553;BME280;9420;50.876;7.012;2023-03-21T02:40:32;101173.31;;;18.35;84.45
19553;BME280;9420;50.876;7.012;2023-03-21T02:43:05;101172.91;;;18.10;85.77
19553;BME280;9420;50.876;7.012;2023-03-21T02:45:41;101172.88;;;17.94;87.21
19553;BME280;9420;50.876;7.012;2023-03-21T02:48:14;101170.44;;;17.90;85.72
19553;BME280;9420;50.876;7.012;2023-03-21T02:50:47;101164.38;;;18.36;83.39
19553;BME280;9420;50.876;7.012;2023-03-21T02:53:21;101165.28;;;18.52;83.74
19553;BME280;9420;50.876;7.012;2023-03-21T02:55:50;101164.53;;;18.33;82.50
19553;BME280;9420;50.876;7.012;2023-03-21T02:58:22;101160.50;;;18.26;84.09
19553;BME280;9420;50.876;7.012;2023-03-21T03:00:51;101162.19;;;18.44;84.43
19553;BME280;9420;50.876;7.012;2023-03-21T03:03:20;101162.88;;;18.48;84.14
19553;BME280;9420;50.876;7.012;2023-03-21T03:05:51;101164.75;;;18.46;86.49
19553;BME280;9420;50.876;7.012;2023-03-21T03:08:30;101165.19;;;18.54;84.87
19553;BME280;9420;50.876;7.012;2023-03-21T03:11:22;101157.97;;;18.23;82.92
19553;BME280;9420;50.876;7.012;2023-03-21T03:14:17;101160.16;;;18.32;80.43
19553;BME280;9420;50.876;7.012;2023-03-21T03:17:03;101163.34;;;18.39;80.64
19553;BME280;9420;50.876;7.012;2023-03-21T03:19:52;101156.16;;;18.56;82.37
19553;BME280;9420;50.876;7.012;2023-03-21T03:22:29;101152.28;;;18.46;81.48
19553;BME280;9420;50.876;7.012;2023-03-21T03:25:06;101156.88;;;18.27;84.11
19553;BME280;9420;50.876;7.012;2023-03-21T03:27:40;101145.53;;;18.39;85.38
19553;BME280;9420;50.876;7.012;2023-03-21T03:30:11;101142.59;;;18.45;86.13
19553;BME280;9420;50.876;7.012;2023-03-21T03:32:45;101140.63;;;18.32;88.31
19553;BME280;9420;50.876;7.012;2023-03-21T03:35:17;101133.69;;;18.12;88.88
19553;BME280;9420;50.876;7.012;2023-03-21T03:37:50;101133.56;;;18.15;89.10
19553;BME280;9420;50.876;7.012;2023-03-21T03:40:26;101131.22;;;18.09;89.22
19553;BME280;9420;50.876;7.012;2023-03-21T03:42:59;101137.31;;;18.11;89.25
19553;BME280;9420;50.876;7.012;2023-03-21T03:45:34;101133.00;;;17.93;87.18
19553;BME280;9420;50.876;7.012;2023-03-21T03:48:10;101124.59;;;18.00;85.69
19553;BME280;9420;50.876;7.012;2023-03-21T03:50:44;101126.09;;;17.89;86.70
19553;BME280;9420;50.876;7.012;2023-03-21T03:53:20;101126.25;;;17.86;89.41
19553;BME280;9420;50.876;7.012;2023-03-21T03:55:52;101131.63;;;18.01;86.91
19553;BME280;9420;50.876;7.012;2023-03-21T03:58:23;101130.78;;;18.01;87.24
19553;BME280;9420;50.876;7.012;2023-03-21T04:00:53;101129.63;;;17.72;87.84
19553;BME280;9420;50.876;7.012;2023-03-21T04:03:20;101131.66;;;18.17;86.07
19553;BME280;9420;50.876;7.012;2023-03-21T04:05:48;101123.94;;;18.28;85.04
19553;BME280;9420;50.876;7.012;2023-03-21T04:08:15;101121.69;;;18.05;85.75
19553;BME280;9420;50.876;7.012;2023-03-21T04:10:43;101123.25;;;18.24;85.63
19553;BME280;9420;50.876;7.012;2023-03-21T04:13:12;101121.34;;;18.26;85.13
19553;BME280;9420;50.876;7.012;2023-03-21T04:15:39;101119.81;;;18.38;84.74
19553;BME280;9420;50.876;7.012;2023-03-21T04:18:06;101120.50;;;18.26;85.28
19553;BME280;9420;50.876;7.012;2023-03-21T04:20:33;101112.63;;;17.92;87.21
19553;BME280;9420;50.876;7.012;2023-03-21T04:23:00;101109.47;;;18.16;86.58
19553;BME280;9420;50.876;7.012;2023-03-21T04:25:27;101111.81;;;18.22;86.01
19553;BME280;9420;50.876;7.012;2023-03-21T04:27:54;101120.59;;;17.92;86.53
19553;BME280;9420;50.876;7.012;2023-03-21T04:30:23;101117.59;;;17.82;87.01
19553;BME280;9420;50.876;7.012;2023-03-21T04:32:51;101121.41;;;17.77;89.23
19553;BME280;9420;50.876;7.012;2023-03-21T04:35:22;101115.38;;;17.90;87.22
19553;BME280;9420;50.876;7.012;2023-03-21T04:37:49;101108.53;;;17.85;88.27
19553;BME280;9420;50.876;7.012;2023-03-21T04:40:17;101105.44;;;17.77;88.17
19553;BME280;9420;50.876;7.012;2023-03-21T04:42:45;101103.47;;;17.80;89.29
19553;BME280;9420;50.876;7.012;2023-03-21T04:45:14;101107.72;;;17.84;88.69
19553;BME280;9420;50.876;7.012;2023-03-21T04:47:42;101110.19;;;18.20;87.35
19553;BME280;9420;50.876;7.012;2023-03-21T04:50:11;101095.38;;;18.14;87.26
19553;BME280;9420;50.876;7.012;2023-03-21T04:52:38;101095.91;;;18.21;86.58
19553;BME280;9420;50.876;7.012;2023-03-21T04:55:07;101096.00;;;18.19;85.61
19553;BME280;9420;50.876;7.012;2023-03-21T04:57:35;101092.22;;;18.39;84.96
19553;BME280;9420;50.876;7.012;2023-03-21T05:00:06;101092.63;;;18.16;86.92
19553;BME280;9420;50.876;7.012;2023-03-21T05:02:36;101097.78;;;18.19;86.38
19553;BME280;9420;50.876;7.012;2023-03-21T05:05:07;101105.88;;;18.33;85.88
19553;BME280;9420;50.876;7.012;2023-03-21T05:07:36;101107.97;;;18.28;86.83
19553;BME280;9420;50.876;7.012;2023-03-21T05:10:05;101109.31;;;18.35;87.35
19553;BME280;9420;50.876;7.012;2023-03-21T05:12:33;101106.72;;;18.02;88.90
19553;BME280;9420;50.876;7.012;2023-03-21T05:15:00;101104.28;;;17.98;89.18
19553;BME280;9420;50.876;7.012;2023-03-21T05:17:27;101105.69;;;18.05;90.08
19553;BME280;9420;50.876;7.012;2023-03-21T05:19:55;101105.72;;;18.36;89.14
19553;BME280;9420;50.876;7.012;2023-03-21T05:22:24;101099.34;;;18.23;88.68
19553;BME280;9420;50.876;7.012;2023-03-21T05:24:53;101104.28;;;17.98;89.55
19553;BME280;9420;50.876;7.012;2023-03-21T05:27:22;101093.06;;;17.76;91.94
19553;BME280;9420;50.876;7.012;2023-03-21T05:30:02;101099.09;;;17.79;92.31
19553;BME280;9420;50.876;7.012;2023-03-21T05:32:29;101111.16;;;18.02;91.52
19553;BME280;9420;50.876;7.012;2023-03-21T05:34:56;101099.44;;;17.89;91.53
19553;BME280;9420;50.876;7.012;2023-03-21T05:37:25;101106.84;;;17.84;91.79
19553;BME280;9420;50.876;7.012;2023-03-21T05:39:52;101102.53;;;17.81;91.07
19553;BME280;9420;50.876;7.012;2023-03-21T05:42:19;101103.84;;;17.90;91.98
19553;BME280;9420;50.876;7.012;2023-03-21T05:44:46;101095.84;;;17.90;93.01
19553;BME280;9420;50.876;7.012;2023-03-21T05:47:15;101098.19;;;17.96;92.21
19553;BME280;9420;50.876;7.012;2023-03-21T05:49:43;101094.41;;;18.00;92.00
19553;BME280;9420;50.876;7.012;2023-03-21T05:52:12;101095.19;;;18.02;91.96
19553;BME280;9420;50.876;7.012;2023-03-21T05:54:40;101100.69;;;17.99;92.96
19553;BME280;9420;50.876;7.012;2023-03-21T05:57:08;101098.47;;;18.22;90.07
19553;BME280;9420;50.876;7.012;2023-03-21T05:59:35;101101.50;;;17.84;93.01
19553;BME280;9420;50.876;7.012;2023-03-21T06:02:02;101098.84;;;17.84;92.97
19553;BME280;9420;50.876;7.012;2023-03-21T06:04:30;101097.59;;;18.06;91.89
19553;BME280;9420;50.876;7.012;2023-03-21T06:06:57;101107.19;;;17.93;92.26
19553;BME280;9420;50.876;7.012;2023-03-21T06:09:24;101105.88;;;18.17;91.00
19553;BME280;9420;50.876;7.012;2023-03-21T06:11:55;101096.06;;;18.02;90.87
19553;BME280;9420;50.876;7.012;2023-03-21T06:14:24;101113.63;;;18.22;91.46
19553;BME280;9420;50.876;7.012;2023-03-21T06:16:51;101113.09;;;18.31;89.71
19553;BME280;9420;50.876;7.012;2023-03-21T06:19:19;101114.28;;;18.10;88.76
19553;BME280;9420;50.876;7.012;2023-03-21T06:21:47;101110.78;;;18.25;88.83
19553;BME280;9420;50.876;7.012;2023-03-21T06:24:14;101113.63;;;18.22;89.48
19553;BME280;9420;50.876;7.012;2023-03-21T06:26:42;101118.44;;;18.31;88.00
19553;BME280;9420;50.876;7.012;2023-03-21T06:29:14;101113.69;;;18.53;86.11
19553;BME280;9420;50.876;7.012;2023-03-21T06:31:41;101107.97;;;18.44;87.74
19553;BME280;9420;50.876;7.012;2023-03-21T06:34:08;101114.31;;;18.41;87.73
19553;BME280;9420;50.876;7.012;2023-03-21T06:36:37;101116.59;;;18.49;88.72
19553;BME280;9420;50.876;7.012;2023-03-21T06:39:05;101122.66;;;18.35;88.75
19553;BME280;9420;50.876;7.012;2023-03-21T06:41:33;101112.94;;;18.34;89.38
19553;BME280;9420;50.876;7.012;2023-03-21T06:44:00;101115.75;;;18.64;87.14
19553;BME280;9420;50.876;7.012;2023-03-21T06:46:29;101118.06;;;18.54;88.40
19553;BME280;9420;50.876;7.012;2023-03-21T06:48:58;101114.69;;;18.97;87.13
19553;BME280;9420;50.876;7.012;2023-03-21T06:51:25;101113.13;;;18.93;87.25
19553;BME280;9420;50.876;7.012;2023-03-21T06:53:52;101113.66;;;18.84;84.26
19553;BME280;9420;50.876;7.012;2023-03-21T06:56:19;101118.31;;;18.65;87.31
19553;BME280;9420;50.876;7.012;2023-03-21T06:58:46;101116.44;;;18.67;90.18
19553;BME280;9420;50.876;7.012;2023-03-21T07:01:13;101123.16;;;18.74;91.18
19553;BME280;9420;50.876;7.012;2023-03-21T07:03:41;101125.25;;;18.04;90.47
19553;BME280;9420;50.876;7.012;2023-03-21T07:06:10;101135.25;;;18.16;90.83
19553;BME280;9420;50.876;7.012;2023-03-21T07:08:39;101131.59;;;17.69;92.15
19553;BME280;9420;50.876;7.012;2023-03-21T07:11:07;101135.19;;;17.85;94.24
19553;BME280;9420;50.876;7.012;2023-03-21T07:13:34;101135.38;;;17.82;95.33
19553;BME280;9420;50.876;7.012;2023-03-21T07:16:01;101131.22;;;17.42;98.46
19553;BME280;9420;50.876;7.012;2023-03-21T07:18:28;101134.91;;;17.57;100.00
19553;BME280;9420;50.876;7.012;2023-03-21T07:20:57;101136.13;;;17.32;100.00
19553;BME280;9420;50.876;7.012;2023-03-21T07:23:26;101139.75;;;17.31;100.00
19553;BME280;9420;50.876;7.012;2023-03-21T07:25:55;101152.03;;;17.34;100.00
19553;BME280;9420;50.876;7.012;2023-03-21T07:28:23;101143.00;;;17.02;100.00
19553;BME280;9420;50.876;7.012;2023-03-21T07:30:56;101134.41;;;17.31;100.00
19553;BME280;9420;50.876;7.012;2023-03-21T07:33:24;101143.50;;;17.27;100.00
19553;BME280;9420;50.876;7.012;2023-03-21T07:35:54;101144.38;;;17.09;100.00
19553;BME280;9420;50.876;7.012;2023-03-21T07:38:24;101144.81;;;17.19;100.00
19553;BME280;9420;50.876;7.012;2023-03-21T07:40:52;101150.22;;;17.17;100.00
19553;BME280;9420;50.876;7.012;2023-03-21T07:43:19;101138.72;;;17.34;100.00
19553;BME280;9420;50.876;7.012;2023-03-21T07:45:46;101146.06;;;17.29;100.00
19553;BME280;9420;50.876;7.012;2023-03-21T07:48:14;101149.56;;;17.12;100.00
19553;BME280;9420;50.876;7.012;2023-03-21T07:50:42;101153.88;;;17.15;100.00
19553;BME280;9420;50.876;7.012;2023-03-21T07:53:09;101148.34;;;17.19;100.00
19553;BME280;9420;50.876;7.012;2023-03-21T07:55:37;101153.31;;;17.08;100.00
19553;BME280;9420;50.876;7.012;2023-03-21T07:58:05;101152.09;;;17.15;100.00
19553;BME280;9420;50.876;7.012;2023-03-21T08:00:34;101154.75;;;17.32;100.00
19553;BME280;9420;50.876;7.012;2023-03-21T08:03:01;101143.88;;;17.37;100.00
19553;BME280;9420;50.876;7.012;2023-03-21T08:05:34;101152.41;;;17.26;100.00
19553;BME280;9420;50.876;7.012;2023-03-21T08:08:01;101154.28;;;17.24;100.00
19553;BME280;9420;50.876;7.012;2023-03-21T08:10:29;101146.66;;;17.53;100.00
19553;BME280;9420;50.876;7.012;2023-03-21T08:12:57;101152.00;;;17.53;100.00
19553;BME280;9420;50.876;7.012;2023-03-21T08:15:25;101149.78;;;17.78;100.00
19553;BME280;9420;50.876;7.012;2023-03-21T08:17:52;101151.91;;;18.04;100.00
19553;BME280;9420;50.876;7.012;2023-03-21T08:20:21;101151.88;;;17.88;100.00
19553;BME280;9420;50.876;7.012;2023-03-21T08:22:49;101143.56;;;18.43;100.00
19553;BME280;9420;50.876;7.012;2023-03-21T08:25:18;101142.69;;;17.94;100.00
19553;BME280;9420;50.876;7.012;2023-03-21T08:27:46;101138.09;;;18.13;100.00
19553;BME280;9420;50.876;7.012;2023-03-21T08:30:18;101148.88;;;18.27;100.00
19553;BME280;9420;50.876;7.012;2023-03-21T08:32:46;101136.25;;;17.98;100.00
19553;BME280;9420;50.876;7.012;2023-03-21T08:35:17;101137.88;;;18.17;100.00
19553;BME280;9420;50.876;7.012;2023-03-21T08:37:45;101131.72;;;18.33;100.00
19553;BME280;9420;50.876;7.012;2023-03-21T08:40:15;101136.22;;;18.15;100.00
19553;BME280;9420;50.876;7.012;2023-03-21T08:42:43;101142.66;;;18.26;100.00
19553;BME280;9420;50.876;7.012;2023-03-21T08:45:12;101134.88;;;18.39;100.00
19553;BME280;9420;50.876;7.012;2023-03-21T08:47:41;101139.47;;;18.53;100.00
19553;BME280;9420;50.876;7.012;2023-03-21T08:50:12;101140.88;;;18.60;100.00
19553;BME280;9420;50.876;7.012;2023-03-21T08:52:40;101138.94;;;18.31;100.00
19553;BME280;9420;50.876;7.012;2023-03-21T08:55:08;101145.94;;;18.64;100.00
19553;BME280;9420;50.876;7.012;2023-03-21T08:57:35;101139.50;;;18.68;100.00
19553;BME280;9420;50.876;7.012;2023-03-21T09:00:05;101144.44;;;18.43;100.00
19553;BME280;9420;50.876;7.012;2023-03-21T09:02:36;101141.13;;;18.86;100.00
19553;BME280;9420;50.876;7.012;2023-03-21T09:05:06;101146.81;;;18.49;100.00
19553;BME280;9420;50.876;7.012;2023-03-21T09:07:36;101143.38;;;18.30;100.00
19553;BME280;9420;50.876;7.012;2023-03-21T09:10:08;101143.25;;;18.49;100.00
19553;BME280;9420;50.876;7.012;2023-03-21T09:12:36;101151.38;;;18.47;100.00
19553;BME280;9420;50.876;7.012;2023-03-21T09:15:04;101143.59;;;18.10;100.00
19553;BME280;9420;50.876;7.012;2023-03-21T09:17:32;101141.16;;;18.38;100.00
19553;BME280;9420;50.876;7.012;2023-03-21T09:19:59;101140.28;;;18.22;100.00
19553;BME280;9420;50.876;7.012;2023-03-21T09:22:34;101132.38;;;18.36;100.00
19553;BME280;9420;50.876;7.012;2023-03-21T09:25:01;101127.41;;;17.97;100.00
19553;BME280;9420;50.876;7.012;2023-03-21T09:27:33;101135.16;;;18.35;100.00
19553;BME280;9420;50.876;7.012;2023-03-21T09:30:00;101127.72;;;18.24;100.00
19553;BME280;9420;50.876;7.012;2023-03-21T09:32:28;101127.06;;;18.36;100.00
19553;BME280;9420;50.876;7.012;2023-03-21T09:34:55;101128.13;;;18.65;100.00
19553;BME280;9420;50.876;7.012;2023-03-21T09:37:22;101129.09;;;18.31;100.00
19553;BME280;9420;50.876;7.012;2023-03-21T09:39:50;101126.31;;;18.50;100.00
19553;BME280;9420;50.876;7.012;2023-03-21T09:42:32;101127.91;;;18.37;100.00
19553;BME280;9420;50.876;7.012;2023-03-21T09:45:11;101130.31;;;18.25;100.00
19553;BME280;9420;50.876;7.012;2023-03-21T09:47:46;101134.44;;;18.31;100.00
19553;BME280;9420;50.876;7.012;2023-03-21T09:50:23;101142.38;;;18.33;100.00
19553;BME280;9420;50.876;7.012;2023-03-21T09:52:57;101137.38;;;17.94;100.00
19553;BME280;9420;50.876;7.012;2023-03-21T09:55:31;101138.16;;;17.96;100.00
19553;BME280;9420;50.876;7.012;2023-03-21T09:58:05;101135.81;;;18.38;100.00
19553;BME280;9420;50.876;7.012;2023-03-21T10:00:37;101124.03;;;18.42;100.00
19553;BME280;9420;50.876;7.012;2023-03-21T10:03:18;101129.00;;;18.17;100.00
19553;BME280;9420;50.876;7.012;2023-03-21T10:05:50;101118.47;;;18.62;100.00
19553;BME280;9420;50.876;7.012;2023-03-21T10:08:27;101125.28;;;18.52;100.00
19553;BME280;9420;50.876;7.012;2023-03-21T10:11:02;101114.97;;;18.46;100.00
19553;BME280;9420;50.876;7.012;2023-03-21T10:13:35;101114.97;;;18.46;100.00
19553;BME280;9420;50.876;7.012;2023-03-21T10:16:14;101105.31;;;18.44;100.00
19553;BME280;9420;50.876;7.012;2023-03-21T10:18:44;101107.78;;;18.15;100.00
19553;BME280;9420;50.876;7.012;2023-03-21T10:21:19;101109.50;;;18.32;100.00
19553;BME280;9420;50.876;7.012;2023-03-21T10:23:48;101100.91;;;18.27;100.00
19553;BME280;9420;50.876;7.012;2023-03-21T10:26:19;101100.06;;;18.42;100.00
19553;BME280;9420;50.876;7.012;2023-03-21T10:28:49;101087.00;;;18.53;100.00
19553;BME280;9420;50.876;7.012;2023-03-21T10:31:19;101094.75;;;18.58;100.00
19553;BME280;9420;50.876;7.012;2023-03-21T10:33:49;101088.47;;;18.59;100.00
19553;BME280;9420;50.876;7.012;2023-03-21T10:36:21;101087.84;;;18.69;100.00
19553;BME280;9420;50.876;7.012;2023-03-21T10:38:54;101090.69;;;18.66;100.00
19553;BME280;9420;50.876;7.012;2023-03-21T10:41:23;101079.22;;;18.95;100.00
19553;BME280;9420;50.876;7.012;2023-03-21T10:44:06;101086.25;;;18.96;100.00
19553;BME280;9420;50.876;7.012;2023-03-21T10:46:34;101074.47;;;19.00;100.00
19553;BME280;9420;50.876;7.012;2023-03-21T10:49:02;101075.91;;;19.06;100.00
19553;BME280;9420;50.876;7.012;2023-03-21T10:51:36;101065.72;;;19.13;100.00
19553;BME280;9420;50.876;7.012;2023-03-21T10:54:10;101067.38;;;19.45;100.00
19553;BME280;9420;50.876;7.012;2023-03-21T10:56:55;101070.03;;;19.59;100.00
19553;BME280;9420;50.876;7.012;2023-03-21T10:59:25;101056.69;;;19.45;100.00
19553;BME280;9420;50.876;7.012;2023-03-21T11:01:55;101061.84;;;19.76;100.00
19553;BME280;9420;50.876;7.012;2023-03-21T11:04:26;101056.50;;;19.76;100.00
19553;BME280;9420;50.876;7.012;2023-03-21T11:06:57;101056.69;;;19.29;100.00
19553;BME280;9420;50.876;7.012;2023-03-21T11:09:43;101058.22;;;19.19;100.00
19553;BME280;9420;50.876;7.012;2023-03-21T11:12:15;101047.81;;;19.15;100.00
19553;BME280;9420;50.876;7.012;2023-03-21T11:14:45;101043.81;;;19.22;100.00
19553;BME280;9420;50.876;7.012;2023-03-21T11:17:22;101036.88;;;18.89;100.00
19553;BME280;9420;50.876;7.012;2023-03-21T11:19:52;101033.28;;;19.04;100.00
19553;BME280;9420;50.876;7.012;2023-03-21T11:22:24;101041.03;;;18.79;100.00
19553;BME280;9420;50.876;7.012;2023-03-21T11:24:57;101039.91;;;19.43;100.00
19553;BME280;9420;50.876;7.012;2023-03-21T11:27:28;101030.59;;;18.90;100.00
19553;BME280;9420;50.876;7.012;2023-03-21T11:29:59;101022.84;;;19.16;100.00
19553;BME280;9420;50.876;7.012;2023-03-21T11:32:33;101021.13;;;19.15;100.00
19553;BME280;9420;50.876;7.012;2023-03-21T11:35:04;101016.72;;;18.99;100.00
19553;BME280;9420;50.876;7.012;2023-03-21T11:37:37;101016.41;;;19.04;100.00
19553;BME280;9420;50.876;7.012;2023-03-21T11:40:19;101006.69;;;18.89;100.00
19553;BME280;9420;50.876;7.012;2023-03-21T11:42:50;101005.47;;;19.09;100.00
19553;BME280;9420;50.876;7.012;2023-03-21T11:45:21;101007.09;;;18.81;100.00
19553;BME280;9420;50.876;7.012;2023-03-21T11:47:51;101004.41;;;18.36;100.00
19553;BME280;9420;50.876;7.012;2023-03-21T11:50:27;101006.53;;;18.76;100.00
19553;BME280;9420;50.876;7.012;2023-03-21T11:53:29;101017.13;;;18.78;100.00
19553;BME280;9420;50.876;7.012;2023-03-21T11:56:23;101014.53;;;18.76;100.00
19553;BME280;9420;50.876;7.012;2023-03-21T11:59:20;101009.72;;;18.67;100.00
19553;BME280;9420;50.876;7.012;2023-03-21T12:02:27;101011.19;;;19.02;100.00
19553;BME280;9420;50.876;7.012;2023-03-21T12:05:08;101008.19;;;19.23;100.00
19553;BME280;9420;50.876;7.012;2023-03-21T12:07:56;100996.53;;;19.10;100.00
19553;BME280;9420;50.876;7.012;2023-03-21T12:10:37;100996.38;;;19.27;100.00
19553;BME280;9420;50.876;7.012;2023-03-21T12:13:22;100995.31;;;18.85;100.00
19553;BME280;9420;50.876;7.012;2023-03-21T12:16:05;100996.84;;;18.89;100.00
19553;BME280;9420;50.876;7.012;2023-03-21T12:18:58;100991.25;;;19.66;100.00
19553;BME280;9420;50.876;7.012;2023-03-21T12:21:33;100988.50;;;18.95;100.00
19553;BME280;9420;50.876;7.012;2023-03-21T12:24:11;100982.16;;;19.26;100.00
19553;BME280;9420;50.876;7.012;2023-03-21T12:26:50;100977.13;;;19.36;100.00
19553;BME280;9420;50.876;7.012;2023-03-21T12:29:42;100977.94;;;19.08;100.00
19553;BME280;9420;50.876;7.012;2023-03-21T12:32:32;100982.19;;;19.54;100.00
19553;BME280;9420;50.876;7.012;2023-03-21T12:35:33;100984.72;;;18.84;100.00
19553;BME280;9420;50.876;7.012;2023-03-21T12:38:14;100986.44;;;19.29;100.00
19553;BME280;9420;50.876;7.012;2023-03-21T12:41:15;100987.81;;;19.36;100.00
19553;BME280;9420;50.876;7.012;2023-03-21T12:43:48;100984.84;;;18.82;100.00
19553;BME280;9420;50.876;7.012;2023-03-21T12:46:23;100970.38;;;19.00;100.00
19553;BME280;9420;50.876;7.012;2023-03-21T12:48:59;100975.22;;;19.38;100.00
19553;BME280;9420;50.876;7.012;2023-03-21T12:51:31;100984.69;;;18.99;100.00
19553;BME280;9420;50.876;7.012;2023-03-21T12:54:07;100981.13;;;19.29;100.00
19553;BME280;9420;50.876;7.012;2023-03-21T12:56:47;100974.03;;;19.28;100.00
19553;BME280;9420;50.876;7.012;2023-03-21T12:59:27;100958.72;;;19.59;100.00
19553;BME280;9420;50.876;7.012;2023-03-21T13:02:03;100958.34;;;20.20;100.00
19553;BME280;9420;50.876;7.012;2023-03-21T13:04:44;100946.03;;;22.44;92.23
19553;BME280;9420;50.876;7.012;2023-03-21T13:07:17;100949.63;;;22.56;92.75
19553;BME280;9420;50.876;7.012;2023-03-21T13:09:47;100948.47;;;21.26;99.56
19553;BME280;9420;50.876;7.012;2023-03-21T13:12:43;100946.72;;;21.50;98.24
19553;BME280;9420;50.876;7.012;2023-03-21T13:15:36;100942.50;;;21.71;93.45
19553;BME280;9420;50.876;7.012;2023-03-21T13:18:19;100934.53;;;22.19;90.12
19553;BME280;9420;50.876;7.012;2023-03-21T13:20:55;100925.75;;;22.17;92.97
19553;BME280;9420;50.876;7.012;2023-03-21T13:23:23;100926.06;;;22.01;92.55
19553;BME280;9420;50.876;7.012;2023-03-21T13:25:54;100911.78;;;22.00;91.22
19553;BME280;9420;50.876;7.012;2023-03-21T13:28:28;100910.09;;;21.38;93.70
19553;BME280;9420;50.876;7.012;2023-03-21T13:31:16;100904.31;;;21.93;95.06
19553;BME280;9420;50.876;7.012;2023-03-21T13:33:47;100904.13;;;21.71;92.61